createdAt,value
2023-06-30T00:02:57.461Z,11.97
2023-06-30T00:08:20.654Z,12.02
2023-06-30T00:13:42.648Z,12.00
2023-06-30T00:19:06.614Z,12.13
2023-06-30T00:24:28.805Z,12.11
2023-06-30T00:29:50.928Z,12.03
2023-06-30T00:35:14.878Z,11.99
2023-06-30T00:40:41.582Z,12.15
2023-06-30T00:46:04.831Z,12.17
2023-06-30T00:51:27.355Z,12.29
2023-06-30T00:56:51.680Z,12.26
2023-06-30T01:02:20.447Z,12.37
2023-06-30T01:07:55.577Z,12.44
2023-06-30T01:13:20.685Z,12.63
2023-06-30T01:18:46.487Z,12.64
2023-06-30T01:24:11.623Z,12.41
2023-06-30T01:29:34.390Z,12.83
2023-06-30T01:34:57.179Z,12.75
2023-06-30T01:40:22.999Z,12.70
2023-06-30T01:45:47.146Z,12.64
2023-06-30T01:51:14.614Z,12.80
2023-06-30T01:56:37.300Z,12.99
2023-06-30T02:01:59.456Z,13.17
2023-06-30T02:07:21.876Z,13.09
2023-06-30T02:12:44.783Z,13.08
2023-06-30T02:18:07.166Z,13.06
2023-06-30T02:23:31.854Z,12.79
2023-06-30T02:28:54.379Z,13.09
2023-06-30T02:34:16.868Z,13.39
2023-06-30T02:39:39.051Z,13.59
2023-06-30T02:45:01.222Z,13.72
2023-06-30T02:50:31.693Z,13.64
2023-06-30T02:55:55.240Z,13.26
2023-06-30T03:01:22.496Z,13.21
2023-06-30T03:06:45.846Z,13.27
2023-06-30T03:12:10.195Z,13.04
2023-06-30T03:17:32.769Z,13.55
2023-06-30T03:22:55.850Z,13.78
2023-06-30T03:28:18.290Z,13.88
2023-06-30T03:33:40.625Z,13.81
2023-06-30T03:39:03.002Z,14.00
2023-06-30T03:44:25.418Z,14.20
2023-06-30T03:49:50.068Z,13.95
2023-06-30T03:55:12.170Z,14.26
2023-06-30T04:00:35.452Z,14.04
2023-06-30T04:05:57.724Z,13.80
2023-06-30T04:11:19.916Z,14.08
2023-06-30T04:16:42.201Z,14.06
2023-06-30T04:22:05.600Z,14.14
2023-06-30T04:27:27.555Z,14.27
2023-06-30T04:32:50.110Z,14.56
2023-06-30T04:38:12.512Z,14.64
2023-06-30T04:43:35.144Z,14.52
2023-06-30T04:48:57.707Z,14.51
2023-06-30T04:54:21.264Z,14.65
2023-06-30T04:59:43.288Z,14.69
2023-06-30T05:05:05.557Z,14.57
2023-06-30T05:10:28.062Z,14.97
2023-06-30T05:15:50.443Z,15.27
2023-06-30T05:21:12.915Z,15.09
2023-06-30T05:26:35.031Z,14.94
2023-06-30T05:32:00.215Z,14.88
2023-06-30T05:37:22.609Z,14.98
2023-06-30T05:42:44.587Z,15.24
2023-06-30T05:48:07.428Z,15.84
2023-06-30T05:53:29.803Z,16.20
2023-06-30T05:58:52.221Z,15.45
2023-06-30T06:04:14.673Z,16.17
2023-06-30T06:09:36.946Z,16.28
2023-06-30T06:14:59.377Z,17.47
2023-06-30T06:20:21.358Z,17.49
2023-06-30T06:25:45.205Z,17.85
2023-06-30T06:31:07.813Z,17.24
2023-06-30T06:36:30.511Z,17.18
2023-06-30T06:41:52.628Z,17.34
2023-06-30T06:47:54.484Z,17.54
2023-06-30T06:53:36.826Z,17.50
2023-06-30T06:58:59.233Z,17.81
2023-06-30T07:04:21.540Z,17.62
2023-06-30T07:09:43.459Z,17.74
2023-06-30T07:15:07.001Z,18.38
2023-06-30T07:20:29.247Z,18.80
2023-06-30T07:25:51.826Z,18.85
2023-06-30T07:31:14.408Z,19.14
2023-06-30T07:36:37.471Z,19.41
2023-06-30T07:41:59.929Z,19.48
2023-06-30T07:47:22.369Z,19.29
2023-06-30T07:52:47.116Z,19.12
2023-06-30T07:58:09.196Z,18.25
2023-06-30T08:03:31.748Z,18.78
2023-06-30T08:08:54.637Z,18.69
2023-06-30T08:14:18.970Z,18.43
2023-06-30T08:19:46.080Z,17.59
2023-06-30T08:25:11.511Z,18.32
2023-06-30T08:30:33.669Z,18.33
2023-06-30T08:35:56.519Z,17.50
2023-06-30T08:41:19.985Z,18.29
2023-06-30T08:46:42.592Z,18.74
2023-06-30T08:52:05.317Z,18.98
2023-06-30T08:57:27.792Z,18.85
2023-06-30T09:02:51.237Z,18.96
2023-06-30T09:08:27.884Z,18.79
2023-06-30T09:13:50.415Z,19.20
2023-06-30T09:19:14.490Z,18.93
2023-06-30T09:24:37.006Z,18.39
2023-06-30T09:29:59.093Z,18.66
2023-06-30T09:35:21.406Z,18.75
2023-06-30T09:40:49.054Z,18.47
2023-06-30T09:46:11.493Z,18.11
2023-06-30T09:51:37.536Z,18.06
2023-06-30T09:57:01.681Z,18.04
2023-06-30T10:02:23.930Z,18.21
2023-06-30T10:07:46.633Z,18.21
2023-06-30T10:13:09.410Z,17.85
2023-06-30T10:18:35.511Z,17.90
2023-06-30T10:23:59.164Z,17.60
2023-06-30T10:29:22.324Z,17.73
2023-06-30T10:34:45.046Z,18.05
2023-06-30T10:40:25.528Z,17.71
2023-06-30T10:46:11.338Z,17.95
2023-06-30T10:51:38.847Z,17.83
2023-06-30T10:57:12.272Z,18.00
2023-06-30T11:02:36.347Z,17.98
2023-06-30T11:08:06.301Z,17.78
2023-06-30T11:13:38.783Z,17.57
2023-06-30T11:19:01.828Z,17.98
2023-06-30T11:24:23.939Z,17.52
2023-06-30T11:29:46.778Z,17.56
2023-06-30T11:35:13.109Z,17.81
2023-06-30T11:40:35.340Z,18.02
2023-06-30T11:46:02.958Z,17.77
2023-06-30T11:51:25.295Z,17.51
2023-06-30T11:56:47.264Z,17.31
2023-06-30T12:02:12.357Z,17.24
2023-06-30T12:07:34.739Z,17.32
2023-06-30T12:13:00.503Z,17.32
2023-06-30T12:18:37.158Z,16.98
2023-06-30T12:23:59.464Z,16.94
2023-06-30T12:29:22.570Z,16.89
2023-06-30T12:34:49.470Z,17.02
2023-06-30T12:40:12.628Z,16.93
2023-06-30T12:45:36.675Z,16.70
2023-06-30T12:51:00.303Z,16.69
2023-06-30T12:56:27.198Z,16.39
2023-06-30T13:01:49.602Z,16.79
2023-06-30T13:07:16.747Z,16.61
2023-06-30T13:12:43.117Z,16.41
2023-06-30T13:18:05.595Z,15.98
2023-06-30T13:23:42.852Z,16.18
2023-06-30T13:29:05.432Z,16.37
2023-06-30T13:34:27.382Z,16.17
2023-06-30T13:39:49.626Z,16.02
2023-06-30T13:45:12.242Z,15.96
2023-06-30T13:50:35.124Z,15.72
2023-06-30T13:56:00.042Z,15.87
2023-06-30T14:01:21.898Z,15.91
2023-06-30T14:06:46.401Z,15.90
2023-06-30T14:12:09.590Z,15.89
2023-06-30T14:17:31.661Z,15.85
2023-06-30T14:22:54.014Z,15.71
2023-06-30T14:28:16.944Z,15.70
2023-06-30T14:33:39.546Z,15.51
2023-06-30T14:39:01.797Z,15.34
2023-06-30T14:44:24.707Z,15.45
2023-06-30T14:50:44.029Z,15.41
2023-06-30T14:56:06.292Z,15.29
2023-06-30T15:01:28.076Z,15.38
2023-06-30T15:06:49.995Z,15.17
2023-06-30T15:12:11.927Z,15.18
2023-06-30T15:17:33.843Z,15.11
2023-06-30T15:22:55.808Z,14.96
2023-06-30T15:28:17.885Z,14.93
2023-06-30T15:33:40.401Z,14.94
2023-06-30T15:39:02.672Z,14.78
2023-06-30T15:44:25.147Z,14.66
2023-06-30T15:49:47.793Z,14.85
2023-06-30T15:55:13.852Z,14.59
2023-06-30T16:00:43.243Z,14.66
2023-06-30T16:06:09.958Z,14.70
2023-06-30T16:11:35.892Z,14.55
2023-06-30T16:16:59.241Z,14.43
2023-06-30T16:22:21.259Z,14.27
2023-06-30T16:27:43.916Z,14.20
2023-06-30T16:33:07.254Z,13.88
2023-06-30T16:38:29.971Z,13.87
2023-06-30T16:43:51.970Z,13.83
2023-06-30T16:49:14.079Z,13.75
2023-06-30T16:54:36.717Z,13.62
2023-06-30T16:59:59.363Z,13.64
2023-06-30T17:05:22.952Z,13.55
2023-06-30T17:10:47.166Z,13.49
2023-06-30T17:16:09.185Z,13.56
2023-06-30T17:21:31.525Z,13.61
2023-06-30T17:26:53.429Z,13.71
2023-06-30T17:32:15.362Z,13.48
2023-06-30T17:37:37.474Z,13.43
2023-06-30T17:42:59.782Z,13.54
2023-06-30T17:48:24.437Z,13.49
2023-06-30T17:53:47.168Z,13.49
2023-06-30T17:59:09.012Z,13.53
2023-06-30T18:04:31.208Z,13.41
2023-06-30T18:09:53.332Z,13.42
2023-06-30T18:15:17.497Z,13.43
2023-06-30T18:20:39.642Z,13.28
2023-06-30T18:26:03.238Z,13.24
2023-06-30T18:31:25.856Z,13.13
2023-06-30T18:36:48.534Z,13.13
2023-06-30T18:42:10.980Z,13.07
2023-06-30T18:47:33.985Z,13.00
2023-06-30T18:52:58.267Z,13.01
2023-06-30T18:58:24.288Z,12.97
2023-06-30T19:03:53.373Z,13.04
2023-06-30T19:09:15.874Z,13.07
2023-06-30T19:14:37.986Z,13.04
2023-06-30T19:20:00.398Z,13.04
2023-06-30T19:25:22.630Z,13.07
2023-06-30T19:30:44.773Z,13.10
2023-06-30T19:36:07.203Z,12.98
2023-06-30T19:41:29.290Z,12.93
2023-06-30T19:46:51.674Z,12.81
2023-06-30T19:52:14.115Z,12.78
2023-06-30T19:57:36.106Z,12.72
2023-06-30T20:03:01.971Z,12.71
2023-06-30T20:08:24.087Z,12.65
2023-06-30T20:13:47.519Z,12.56
2023-06-30T20:19:09.680Z,12.61
2023-06-30T20:24:31.783Z,12.48
2023-06-30T20:30:00.313Z,12.40
2023-06-30T20:35:23.954Z,12.42
2023-06-30T20:40:46.343Z,12.42
2023-06-30T20:46:11.743Z,12.27
2023-06-30T20:51:42.210Z,12.29
2023-06-30T20:57:05.888Z,12.24
2023-06-30T21:02:28.346Z,12.17
2023-06-30T21:07:53.705Z,12.23
2023-06-30T21:13:18.566Z,12.18
2023-06-30T21:18:41.348Z,12.26
2023-06-30T21:24:03.521Z,12.20
2023-06-30T21:29:28.353Z,12.14
2023-06-30T21:34:51.712Z,12.18
2023-06-30T21:40:14.960Z,12.18
2023-06-30T21:45:37.189Z,12.17
2023-06-30T21:50:59.305Z,12.06
2023-06-30T21:56:21.061Z,12.12
2023-06-30T22:01:43.534Z,12.16
2023-06-30T22:07:06.155Z,12.11
2023-06-30T22:12:28.256Z,12.25
2023-06-30T22:17:55.796Z,12.26
2023-06-30T22:23:17.878Z,12.26
2023-06-30T22:28:42.464Z,12.27
2023-06-30T22:34:05.128Z,12.19
2023-06-30T22:39:27.628Z,12.25
2023-06-30T22:44:50.054Z,12.26
2023-06-30T22:50:12.263Z,12.29
2023-06-30T22:55:37.267Z,12.25
2023-06-30T23:00:59.504Z,12.29
2023-06-30T23:06:21.756Z,12.39
2023-06-30T23:11:48.719Z,12.24
2023-06-30T23:17:17.394Z,12.35
2023-06-30T23:22:40.673Z,12.34
2023-06-30T23:28:05.245Z,12.26
2023-06-30T23:33:27.214Z,12.37
2023-06-30T23:38:49.208Z,12.38
2023-06-30T23:44:11.348Z,12.23
2023-06-30T23:49:34.117Z,12.22
2023-06-30T23:54:56.579Z,12.25
